createdAt,value
2018-08-07T00:01:19.096Z,89.32
2018-08-07T00:04:17.032Z,86.43
2018-08-07T00:07:15.130Z,86.28
2018-08-07T00:10:13.953Z,87.44
2018-08-07T00:13:12.071Z,88.07
2018-08-07T00:16:10.340Z,86.71
2018-08-07T00:19:08.795Z,85.39
2018-08-07T00:22:07.034Z,85.75
2018-08-07T00:25:05.132Z,85.82
2018-08-07T00:28:04.178Z,85.56
2018-08-07T00:31:02.566Z,87.38
2018-08-07T00:34:00.581Z,87.64
2018-08-07T00:37:00.629Z,86.84
2018-08-07T00:39:58.677Z,87.42
2018-08-07T00:42:57.069Z,86.52
2018-08-07T00:45:55.104Z,85.05
2018-08-07T00:48:53.353Z,85.60
2018-08-07T00:51:51.410Z,85.26
2018-08-07T00:54:51.795Z,84.58
2018-08-07T00:57:50.587Z,84.48
2018-08-07T01:00:48.664Z,84.06
2018-08-07T01:03:46.644Z,84.84
2018-08-07T01:06:45.086Z,85.47
2018-08-07T01:09:43.790Z,85.80
2018-08-07T01:12:41.907Z,86.18
2018-08-07T01:15:41.772Z,86.04
2018-08-07T01:18:40.322Z,86.34
2018-08-07T01:21:38.458Z,87.26
2018-08-07T01:24:36.791Z,87.04
2018-08-07T01:27:35.814Z,87.71
2018-08-07T01:30:37.145Z,88.20
2018-08-07T01:33:35.208Z,88.10
2018-08-07T01:36:33.204Z,87.77
2018-08-07T01:39:32.425Z,87.66
2018-08-07T01:42:30.847Z,87.98
2018-08-07T01:45:29.279Z,88.85
2018-08-07T01:48:27.471Z,89.69
2018-08-07T01:51:25.820Z,89.12
2018-08-07T01:54:24.237Z,90.01
2018-08-07T01:57:22.015Z,90.47
2018-08-07T02:00:22.196Z,90.84
2018-08-07T02:03:20.201Z,89.95
2018-08-07T02:06:18.301Z,89.20
2018-08-07T02:09:17.304Z,89.38
2018-08-07T02:12:15.431Z,89.32
2018-08-07T02:15:14.488Z,88.56
2018-08-07T02:18:12.798Z,89.01
2018-08-07T02:21:11.023Z,89.69
2018-08-07T02:24:10.059Z,88.97
2018-08-07T02:27:08.146Z,88.43
2018-08-07T02:30:06.493Z,87.64
2018-08-07T02:33:04.681Z,87.77
2018-08-07T02:36:03.902Z,88.34
2018-08-07T02:39:02.047Z,87.64
2018-08-07T02:42:04.105Z,87.85
2018-08-07T02:45:02.103Z,86.89
2018-08-07T02:47:59.952Z,86.39
2018-08-07T02:50:58.245Z,86.21
2018-08-07T02:53:56.232Z,84.81
2018-08-07T02:56:54.464Z,85.84
2018-08-07T02:59:52.891Z,87.01
2018-08-07T03:02:51.440Z,87.98
2018-08-07T03:05:49.603Z,88.44
2018-08-07T03:08:47.726Z,88.67
2018-08-07T03:11:46.439Z,88.93
2018-08-07T03:14:44.484Z,88.43
2018-08-07T03:17:43.246Z,88.69
2018-08-07T03:20:41.298Z,88.80
2018-08-07T03:23:40.171Z,88.99
2018-08-07T03:26:38.651Z,88.26
2018-08-07T03:29:36.552Z,88.17
2018-08-07T03:32:34.758Z,87.95
2018-08-07T03:35:33.185Z,88.29
2018-08-07T03:38:31.525Z,88.57
2018-08-07T03:41:29.588Z,88.33
2018-08-07T03:44:27.635Z,89.07
2018-08-07T03:47:25.918Z,90.74
2018-08-07T03:50:25.087Z,90.08
2018-08-07T03:53:23.470Z,91.39
2018-08-07T03:56:22.051Z,91.24
2018-08-07T03:59:20.225Z,91.61
2018-08-07T04:02:18.470Z,91.57
2018-08-07T04:05:17.358Z,92.11
2018-08-07T04:08:15.608Z,92.37
2018-08-07T04:11:14.303Z,92.62
2018-08-07T04:14:12.301Z,92.77
2018-08-07T04:17:10.878Z,92.66
2018-08-07T04:20:09.070Z,91.73
2018-08-07T04:23:07.513Z,91.16
2018-08-07T04:26:05.502Z,90.91
2018-08-07T04:29:04.158Z,90.67
2018-08-07T04:32:02.244Z,89.53
2018-08-07T04:35:00.563Z,89.89
2018-08-07T04:37:59.283Z,89.26
2018-08-07T04:40:57.920Z,88.55
2018-08-07T04:43:55.785Z,88.87
2018-08-07T04:46:53.936Z,88.89
2018-08-07T04:49:52.751Z,89.12
2018-08-07T04:52:52.287Z,87.92
2018-08-07T04:55:50.483Z,88.48
2018-08-07T04:58:48.627Z,87.73
2018-08-07T05:01:46.683Z,87.52
2018-08-07T05:04:45.044Z,86.73
2018-08-07T05:07:42.743Z,86.30
2018-08-07T05:10:40.852Z,86.44
2018-08-07T05:13:39.045Z,84.94
2018-08-07T05:16:38.182Z,83.70
2018-08-07T05:19:36.325Z,81.81
2018-08-07T05:22:35.799Z,80.62
2018-08-07T05:25:33.889Z,78.50
2018-08-07T05:28:32.199Z,78.27
2018-08-07T05:31:30.300Z,76.87
2018-08-07T05:34:28.412Z,76.80
2018-08-07T05:37:27.631Z,76.57
2018-08-07T05:40:26.616Z,75.40
2018-08-07T05:43:25.955Z,74.98
2018-08-07T05:46:24.760Z,75.04
2018-08-07T05:49:24.068Z,74.37
2018-08-07T05:52:22.156Z,74.63
2018-08-07T05:55:20.295Z,72.75
2018-08-07T05:58:18.416Z,72.51
2018-08-07T06:01:17.386Z,70.49
2018-08-07T06:04:15.530Z,70.83
2018-08-07T06:07:15.712Z,70.28
2018-08-07T06:10:14.160Z,69.59
2018-08-07T06:13:12.112Z,68.22
2018-08-07T06:16:10.183Z,67.99
2018-08-07T06:19:09.020Z,67.26
2018-08-07T06:22:07.508Z,65.89
2018-08-07T06:25:05.280Z,65.72
2018-08-07T06:28:03.722Z,64.98
2018-08-07T06:31:01.831Z,64.37
2018-08-07T06:34:00.268Z,64.05
2018-08-07T06:36:58.455Z,63.28
2018-08-07T06:39:56.632Z,62.80
2018-08-07T06:42:55.458Z,61.65
2018-08-07T06:45:54.034Z,61.04
2018-08-07T06:48:53.464Z,60.39
2018-08-07T06:51:52.152Z,60.85
2018-08-07T06:54:50.851Z,61.61
2018-08-07T06:57:50.730Z,60.20
2018-08-07T07:00:48.744Z,58.91
2018-08-07T07:03:47.085Z,57.90
2018-08-07T07:06:45.101Z,57.58
2018-08-07T07:09:43.209Z,56.89
2018-08-07T07:12:41.554Z,57.46
2018-08-07T07:15:39.701Z,56.19
2018-08-07T07:18:37.939Z,56.16
2018-08-07T07:21:38.066Z,55.28
2018-08-07T07:24:36.203Z,54.96
2018-08-07T07:27:34.391Z,55.61
2018-08-07T07:30:35.480Z,54.52
2018-08-07T07:33:33.665Z,54.62
2018-08-07T07:36:32.036Z,52.32
2018-08-07T07:39:31.143Z,52.73
2018-08-07T07:42:30.205Z,52.74
2018-08-07T07:45:30.170Z,49.45
2018-08-07T07:48:36.756Z,49.18
2018-08-07T07:51:35.031Z,49.17
2018-08-07T07:54:33.187Z,48.77
2018-08-07T07:57:31.575Z,48.53
2018-08-07T08:00:38.728Z,47.08
2018-08-07T08:03:36.911Z,46.58
2018-08-07T08:06:34.853Z,46.84
2018-08-07T08:09:33.220Z,46.13
2018-08-07T08:12:33.007Z,46.13
2018-08-07T08:15:37.496Z,45.96
2018-08-07T08:18:35.278Z,44.81
2018-08-07T08:21:33.560Z,44.06
2018-08-07T08:24:31.583Z,45.89
2018-08-07T08:27:29.923Z,45.27
2018-08-07T08:30:28.833Z,45.20
2018-08-07T08:33:26.919Z,44.59
2018-08-07T08:36:25.260Z,43.51
2018-08-07T08:39:24.359Z,44.15
2018-08-07T08:42:22.299Z,44.35
2018-08-07T08:45:22.536Z,42.99
2018-08-07T08:48:22.850Z,43.39
2018-08-07T08:51:21.813Z,43.23
2018-08-07T08:54:20.064Z,42.97
2018-08-07T08:57:18.135Z,42.73
2018-08-07T09:00:16.493Z,43.17
2018-08-07T09:03:15.510Z,42.16
2018-08-07T09:06:14.653Z,41.38
2018-08-07T09:09:13.041Z,41.18
2018-08-07T09:12:11.568Z,40.71
2018-08-07T09:15:09.726Z,40.63
2018-08-07T09:18:08.340Z,41.32
2018-08-07T09:21:06.523Z,41.79
2018-08-07T09:24:04.463Z,40.98
2018-08-07T09:27:02.461Z,41.12
2018-08-07T09:30:01.370Z,38.52
2018-08-07T09:33:01.332Z,39.74
2018-08-07T09:35:59.864Z,40.17
2018-08-07T09:38:58.562Z,38.63
2018-08-07T09:41:56.701Z,37.88
2018-08-07T09:44:54.839Z,38.72
2018-08-07T09:47:55.702Z,37.79
2018-08-07T09:51:13.975Z,38.19
2018-08-07T09:54:11.990Z,36.51
2018-08-07T09:57:10.381Z,35.50
2018-08-07T10:00:08.598Z,35.60
2018-08-07T10:03:09.651Z,36.33
2018-08-07T10:06:07.629Z,35.83
2018-08-07T10:09:06.768Z,35.61
2018-08-07T10:12:04.936Z,34.92
2018-08-07T10:15:03.328Z,36.01
2018-08-07T10:18:01.795Z,36.49
2018-08-07T10:20:59.851Z,34.57
2018-08-07T10:23:57.914Z,34.13
2018-08-07T10:26:56.088Z,32.88
2018-08-07T10:29:54.627Z,33.90
2018-08-07T10:32:52.938Z,33.27
2018-08-07T10:35:51.359Z,34.19
2018-08-07T10:38:49.690Z,34.17
2018-08-07T10:41:48.812Z,33.27
2018-08-07T10:44:46.884Z,33.45
2018-08-07T10:47:46.207Z,33.22
2018-08-07T10:50:44.450Z,31.64
2018-08-07T10:53:42.436Z,30.50
2018-08-07T10:56:40.845Z,30.08
2018-08-07T10:59:38.580Z,29.82
2018-08-07T11:02:37.882Z,29.71
2018-08-07T11:05:37.793Z,26.69
2018-08-07T11:08:36.022Z,28.21
2018-08-07T11:11:33.907Z,26.92
2018-08-07T11:14:32.785Z,26.80
2018-08-07T11:17:30.658Z,26.68
2018-08-07T11:20:30.100Z,26.51
2018-08-07T11:23:28.027Z,25.70
2018-08-07T11:26:27.241Z,26.39
2018-08-07T11:29:25.448Z,25.88
2018-08-07T11:32:23.885Z,23.10
2018-08-07T11:35:23.281Z,21.94
2018-08-07T11:38:22.520Z,22.35
2018-08-07T11:41:21.178Z,21.00
2018-08-07T11:44:20.224Z,20.39
2018-08-07T11:47:19.135Z,20.27
2018-08-07T11:50:18.369Z,18.97
2018-08-07T11:53:17.592Z,19.09
2018-08-07T11:56:16.128Z,18.01
2018-08-07T11:59:14.639Z,18.33
2018-08-07T12:02:14.262Z,16.57
2018-08-07T12:05:12.182Z,16.08
2018-08-07T12:08:10.683Z,16.64
2018-08-07T12:11:09.534Z,16.05
2018-08-07T12:14:09.157Z,15.14
2018-08-07T12:17:08.092Z,15.47
2018-08-07T12:20:06.807Z,15.45
2018-08-07T12:23:06.388Z,14.78
2018-08-07T12:26:04.344Z,15.26
2018-08-07T12:29:02.606Z,14.54
2018-08-07T12:32:01.040Z,14.14
2018-08-07T12:34:58.987Z,14.09
2018-08-07T12:37:58.678Z,15.55
2018-08-07T12:40:56.949Z,15.44
2018-08-07T12:43:55.195Z,14.91
2018-08-07T12:46:53.507Z,14.72
2018-08-07T12:49:51.812Z,14.93
2018-08-07T12:52:50.071Z,14.24
2018-08-07T12:55:48.692Z,15.07
2018-08-07T12:58:46.578Z,15.12
2018-08-07T13:01:44.843Z,14.20
2018-08-07T13:04:42.792Z,13.85
2018-08-07T13:07:40.799Z,13.93
2018-08-07T13:10:40.370Z,14.58
2018-08-07T13:13:39.504Z,13.81
2018-08-07T13:16:39.098Z,14.79
2018-08-07T13:19:37.446Z,14.17
2018-08-07T13:22:35.727Z,12.33
2018-08-07T13:25:35.040Z,12.78
2018-08-07T13:28:33.245Z,13.55
2018-08-07T13:31:31.815Z,13.54
2018-08-07T13:34:30.596Z,13.27
2018-08-07T13:37:28.756Z,12.90
2018-08-07T13:40:31.100Z,12.56
2018-08-07T13:43:29.376Z,13.07
2018-08-07T13:46:27.404Z,13.25
2018-08-07T13:49:25.873Z,12.52
2018-08-07T13:52:23.932Z,11.67
2018-08-07T13:55:23.183Z,12.01
2018-08-07T13:58:21.795Z,11.59
2018-08-07T14:01:21.628Z,12.04
2018-08-07T14:04:19.852Z,12.04
2018-08-07T14:07:18.279Z,12.42
2018-08-07T14:10:17.105Z,11.57
2018-08-07T14:13:15.544Z,11.62
2018-08-07T14:16:13.968Z,12.10
2018-08-07T14:19:11.898Z,11.82
2018-08-07T14:22:10.573Z,11.72
2018-08-07T14:25:08.876Z,11.05
2018-08-07T14:28:07.743Z,11.26
2018-08-07T14:31:05.822Z,11.53
2018-08-07T14:34:03.943Z,10.90
2018-08-07T14:37:02.026Z,11.11
2018-08-07T14:40:00.168Z,11.68
2018-08-07T14:42:59.528Z,11.64
2018-08-07T14:45:57.727Z,10.95
2018-08-07T14:48:55.963Z,10.63
2018-08-07T14:51:53.827Z,11.03
2018-08-07T14:54:52.168Z,10.44
2018-08-07T14:57:51.082Z,10.98
2018-08-07T15:00:49.480Z,10.88
2018-08-07T15:03:47.780Z,10.27
2018-08-07T15:06:46.597Z,10.25
2018-08-07T15:09:45.044Z,10.97
2018-08-07T15:12:43.864Z,11.09
2018-08-07T15:15:44.272Z,10.75
2018-08-07T15:18:43.556Z,10.63
2018-08-07T15:21:41.855Z,10.72
2018-08-07T15:24:40.135Z,10.77
2018-08-07T15:27:38.546Z,10.45
2018-08-07T15:30:38.762Z,11.20
2018-08-07T15:33:36.853Z,11.64
2018-08-07T15:36:35.204Z,11.64
2018-08-07T15:39:34.562Z,11.71
2018-08-07T15:42:34.048Z,11.78
2018-08-07T15:45:34.121Z,11.65
2018-08-07T15:48:33.265Z,11.57
2018-08-07T15:51:31.515Z,11.89
2018-08-07T15:54:29.902Z,12.26
2018-08-07T15:57:28.147Z,11.59
2018-08-07T16:00:30.366Z,11.26
2018-08-07T16:03:28.340Z,12.02
2018-08-07T16:06:26.578Z,12.10
2018-08-07T16:09:25.081Z,12.84
2018-08-07T16:12:23.540Z,11.99
2018-08-07T16:15:22.545Z,12.12
2018-08-07T16:18:22.004Z,12.72
2018-08-07T16:21:19.996Z,12.22
2018-08-07T16:24:19.349Z,12.46
2018-08-07T16:27:17.327Z,12.06
2018-08-07T16:30:15.649Z,12.40
2018-08-07T16:33:13.664Z,12.37
2018-08-07T16:36:12.191Z,12.45
2018-08-07T16:39:10.101Z,12.04
2018-08-07T16:42:08.523Z,12.00
2018-08-07T16:45:07.853Z,13.38
2018-08-07T16:48:06.015Z,13.51
2018-08-07T16:51:04.067Z,13.94
2018-08-07T16:54:04.054Z,14.72
2018-08-07T16:57:03.390Z,14.20
2018-08-07T17:00:01.760Z,15.26
2018-08-07T17:03:00.188Z,15.80
2018-08-07T17:05:58.440Z,15.31
2018-08-07T17:08:56.919Z,15.96
2018-08-07T17:11:55.319Z,16.88
2018-08-07T17:14:53.273Z,17.73
2018-08-07T17:17:52.601Z,17.19
2018-08-07T17:20:50.716Z,17.95
2018-08-07T17:23:50.012Z,17.20
2018-08-07T17:26:48.075Z,19.35
2018-08-07T17:29:46.110Z,19.53
2018-08-07T17:32:45.737Z,19.31
2018-08-07T17:35:43.381Z,20.29
2018-08-07T17:38:41.704Z,19.50
2018-08-07T17:41:40.073Z,22.03
2018-08-07T17:44:37.998Z,21.66
2018-08-07T17:47:36.383Z,22.83
2018-08-07T17:50:38.930Z,22.20
2018-08-07T17:53:37.395Z,24.24
2018-08-07T17:56:37.500Z,24.08
2018-08-07T17:59:35.957Z,23.52
2018-08-07T18:02:34.294Z,25.12
2018-08-07T18:05:32.579Z,24.58
2018-08-07T18:08:31.394Z,25.33
2018-08-07T18:11:29.515Z,26.03
2018-08-07T18:14:28.576Z,27.89
2018-08-07T18:17:27.790Z,27.12
2018-08-07T18:20:34.209Z,28.39
2018-08-07T18:23:32.299Z,28.36
2018-08-07T18:26:30.305Z,28.78
2018-08-07T18:29:28.435Z,28.79
2018-08-07T18:32:27.058Z,29.08
2018-08-07T18:35:27.750Z,29.32
2018-08-07T18:38:25.789Z,30.29
2018-08-07T18:41:24.077Z,30.18
2018-08-07T18:44:23.175Z,31.13
2018-08-07T18:47:21.482Z,30.64
2018-08-07T18:50:20.513Z,30.47
2018-08-07T18:53:18.325Z,30.73
2018-08-07T18:56:16.469Z,30.90
2018-08-07T18:59:15.152Z,31.85
2018-08-07T19:02:13.298Z,31.17
2018-08-07T19:05:11.390Z,31.97
2018-08-07T19:08:09.212Z,32.56
2018-08-07T19:11:07.282Z,32.62
2018-08-07T19:14:05.925Z,32.29
2018-08-07T19:17:04.438Z,32.52
2018-08-07T19:20:02.346Z,33.39
2018-08-07T19:23:00.511Z,33.06
2018-08-07T19:25:58.461Z,34.18
2018-08-07T19:28:56.623Z,33.70
2018-08-07T19:31:54.701Z,34.30
2018-08-07T19:34:52.738Z,34.07
2018-08-07T19:37:50.922Z,33.86
2018-08-07T19:40:49.083Z,33.89
2018-08-07T19:43:47.126Z,34.18
2018-08-07T19:46:47.263Z,34.37
2018-08-07T19:49:45.858Z,35.90
2018-08-07T19:52:45.635Z,36.91
2018-08-07T19:55:43.906Z,36.60
2018-08-07T19:58:43.143Z,37.61
2018-08-07T20:01:41.327Z,37.82
2018-08-07T20:04:39.509Z,38.25
2018-08-07T20:07:37.663Z,39.04
2018-08-07T20:10:36.592Z,39.32
2018-08-07T20:13:34.510Z,41.11
2018-08-07T20:16:33.144Z,40.41
2018-08-07T20:19:31.432Z,40.86
2018-08-07T20:22:35.105Z,41.89
2018-08-07T20:25:33.775Z,42.42
2018-08-07T20:28:31.935Z,42.23
2018-08-07T20:31:30.022Z,43.02
2018-08-07T20:34:28.410Z,42.97
2018-08-07T20:37:27.402Z,43.59
2018-08-07T20:40:28.825Z,43.57
2018-08-07T20:43:27.681Z,44.57
2018-08-07T20:46:26.696Z,45.24
2018-08-07T20:49:24.844Z,45.31
2018-08-07T20:52:23.064Z,45.81
2018-08-07T20:55:22.176Z,46.18
2018-08-07T20:58:21.399Z,46.70
2018-08-07T21:01:19.237Z,46.64
2018-08-07T21:04:17.564Z,48.21
2018-08-07T21:07:17.679Z,48.53
2018-08-07T21:10:16.746Z,48.37
2018-08-07T21:13:15.422Z,48.60
2018-08-07T21:16:13.712Z,49.23
2018-08-07T21:19:11.671Z,48.66
2018-08-07T21:22:10.412Z,49.13
2018-08-07T21:25:08.298Z,49.29
2018-08-07T21:28:08.269Z,48.40
2018-08-07T21:31:06.185Z,49.39
2018-08-07T21:34:04.309Z,50.15
2018-08-07T21:37:02.268Z,50.42
2018-08-07T21:40:01.084Z,50.97
2018-08-07T21:43:01.135Z,50.71
2018-08-07T21:45:59.138Z,51.08
2018-08-07T21:48:57.680Z,51.68
2018-08-07T21:51:56.186Z,51.49
2018-08-07T21:54:54.222Z,51.73
2018-08-07T21:57:52.451Z,51.20
2018-08-07T22:01:00.465Z,50.84
2018-08-07T22:03:58.567Z,51.77
2018-08-07T22:06:56.487Z,51.37
2018-08-07T22:09:55.748Z,51.36
2018-08-07T22:12:54.763Z,51.94
2018-08-07T22:15:53.103Z,52.17
2018-08-07T22:18:50.972Z,52.69
2018-08-07T22:21:49.364Z,52.51
2018-08-07T22:24:48.123Z,53.19
2018-08-07T22:27:46.786Z,53.31
2018-08-07T22:30:46.383Z,53.79
2018-08-07T22:33:44.784Z,53.25
2018-08-07T22:36:42.920Z,53.60
2018-08-07T22:39:40.902Z,53.53
2018-08-07T22:42:39.347Z,53.46
2018-08-07T22:45:38.001Z,52.45
2018-08-07T22:48:36.057Z,52.89
2018-08-07T22:51:34.518Z,53.43
2018-08-07T22:54:32.704Z,52.93
2018-08-07T22:57:32.921Z,52.88
2018-08-07T23:00:33.336Z,53.66
2018-08-07T23:03:31.821Z,52.99
2018-08-07T23:06:29.864Z,52.97
2018-08-07T23:09:30.084Z,53.94
2018-08-07T23:12:28.522Z,53.88
2018-08-07T23:15:29.883Z,53.92
2018-08-07T23:18:28.132Z,54.18
2018-08-07T23:21:26.613Z,54.48
2018-08-07T23:24:24.549Z,54.62
2018-08-07T23:27:22.740Z,55.20
2018-08-07T23:30:22.937Z,54.57
2018-08-07T23:33:21.492Z,55.46
2018-08-07T23:36:20.373Z,55.08
2018-08-07T23:39:19.480Z,55.57
2018-08-07T23:42:17.725Z,56.22
2018-08-07T23:45:18.370Z,55.66
2018-08-07T23:48:16.915Z,56.42
2018-08-07T23:51:15.342Z,56.47
2018-08-07T23:54:13.650Z,56.97
2018-08-07T23:57:11.726Z,56.45
